createdAt,value
2017-09-21T00:01:05.008Z,17.20
2017-09-21T00:03:33.080Z,15.23
2017-09-21T00:06:01.151Z,15.10
2017-09-21T00:08:29.304Z,16.03
2017-09-21T00:10:58.142Z,16.47
2017-09-21T00:13:26.212Z,17.10
2017-09-21T00:15:54.278Z,18.13
2017-09-21T00:18:22.351Z,16.87
2017-09-21T00:20:51.298Z,18.47
2017-09-21T00:23:19.367Z,18.73
2017-09-21T00:25:47.447Z,19.73
2017-09-21T00:28:15.642Z,16.20
2017-09-21T00:30:43.698Z,15.53
2017-09-21T00:33:11.798Z,18.20
2017-09-21T00:35:39.971Z,15.73
2017-09-21T00:38:08.119Z,23.60
2017-09-21T00:40:36.975Z,16.43
2017-09-21T00:43:05.041Z,17.77
2017-09-21T00:45:33.135Z,18.10
2017-09-21T00:48:01.960Z,19.80
2017-09-21T00:50:31.271Z,16.97
2017-09-21T00:52:59.347Z,17.20
2017-09-21T00:55:27.411Z,16.47
2017-09-21T00:57:55.490Z,19.07
2017-09-21T01:00:23.563Z,18.33
2017-09-21T01:02:51.648Z,19.27
2017-09-21T01:05:19.728Z,19.03
2017-09-21T01:07:47.808Z,16.43
2017-09-21T01:10:15.872Z,16.97
2017-09-21T01:12:43.955Z,17.37
2017-09-21T01:15:12.014Z,20.03
2017-09-21T01:17:40.071Z,16.17
2017-09-21T01:20:08.153Z,19.10
2017-09-21T01:22:36.216Z,18.40
2017-09-21T01:25:04.295Z,19.30
2017-09-21T01:27:32.354Z,18.30
2017-09-21T01:30:00.450Z,16.77
2017-09-21T01:32:28.518Z,15.67
2017-09-21T01:34:56.716Z,18.27
2017-09-21T01:37:24.779Z,18.70
2017-09-21T01:39:52.832Z,17.47
2017-09-21T01:42:20.927Z,16.33
2017-09-21T01:44:48.991Z,17.67
2017-09-21T01:47:17.059Z,17.37
2017-09-21T01:49:45.138Z,18.83
2017-09-21T01:52:13.211Z,17.97
2017-09-21T01:54:41.307Z,19.93
2017-09-21T01:57:09.433Z,18.43
2017-09-21T01:59:37.579Z,19.00
2017-09-21T02:02:06.403Z,19.97
2017-09-21T02:04:34.470Z,18.63
2017-09-21T02:07:02.558Z,20.60
2017-09-21T02:09:30.619Z,21.23
2017-09-21T02:11:58.715Z,20.37
2017-09-21T02:14:26.783Z,27.23
2017-09-21T02:16:54.850Z,19.80
2017-09-21T02:19:22.923Z,19.93
2017-09-21T02:21:50.991Z,24.20
2017-09-21T02:24:19.072Z,21.27
2017-09-21T02:26:47.150Z,20.07
2017-09-21T02:29:15.230Z,18.77
2017-09-21T02:31:43.286Z,19.10
2017-09-21T02:34:11.971Z,18.20
2017-09-21T02:36:40.030Z,18.53
2017-09-21T02:39:08.090Z,20.20
2017-09-21T02:41:36.160Z,23.20
2017-09-21T02:44:04.219Z,20.33
2017-09-21T02:46:32.299Z,18.43
2017-09-21T02:49:00.372Z,25.53
2017-09-21T02:51:28.443Z,15.60
2017-09-21T02:53:56.524Z,16.13
2017-09-21T02:56:24.770Z,18.80
2017-09-21T02:58:52.840Z,19.87
2017-09-21T03:01:20.908Z,19.00
2017-09-21T03:03:48.983Z,19.10
2017-09-21T03:06:17.047Z,18.87
2017-09-21T03:08:45.145Z,18.87
2017-09-21T03:11:13.199Z,17.43
2017-09-21T03:13:41.263Z,19.50
2017-09-21T03:16:09.339Z,19.13
2017-09-21T03:18:37.403Z,18.57
2017-09-21T03:21:05.502Z,17.37
2017-09-21T03:23:33.555Z,18.80
2017-09-21T03:26:01.619Z,19.60
2017-09-21T03:28:29.685Z,20.03
2017-09-21T03:30:57.759Z,18.87
2017-09-21T03:33:25.819Z,20.50
2017-09-21T03:35:53.903Z,18.03
2017-09-21T03:38:21.974Z,19.50
2017-09-21T03:40:50.047Z,20.07
2017-09-21T03:43:18.201Z,18.00
2017-09-21T03:45:46.291Z,18.40
2017-09-21T03:48:14.348Z,20.43
2017-09-21T03:50:42.411Z,18.47
2017-09-21T03:53:10.486Z,19.97
2017-09-21T03:55:38.559Z,21.50
2017-09-21T03:58:06.626Z,19.87
2017-09-21T04:00:34.731Z,20.87
2017-09-21T04:03:03.570Z,19.43
2017-09-21T04:05:31.660Z,18.63
2017-09-21T04:07:59.727Z,19.93
2017-09-21T04:10:27.791Z,18.00
2017-09-21T04:12:55.871Z,19.70
2017-09-21T04:15:23.948Z,17.13
2017-09-21T04:17:52.043Z,18.33
2017-09-21T04:20:20.908Z,21.47
2017-09-21T04:22:49.556Z,17.97
2017-09-21T04:25:17.653Z,24.37
2017-09-21T04:27:45.719Z,17.37
2017-09-21T04:30:13.791Z,18.13
2017-09-21T04:32:41.852Z,17.90
2017-09-21T04:35:09.923Z,18.70
2017-09-21T04:37:37.992Z,15.63
2017-09-21T04:40:06.064Z,18.57
2017-09-21T04:42:34.928Z,17.60
2017-09-21T04:45:03.008Z,18.47
2017-09-21T04:47:31.086Z,16.80
2017-09-21T04:49:59.139Z,16.80
2017-09-21T04:52:27.223Z,17.87
2017-09-21T04:54:55.301Z,19.73
2017-09-21T04:57:24.143Z,20.40
2017-09-21T04:59:52.219Z,17.20
2017-09-21T05:02:20.356Z,18.07
2017-09-21T05:04:49.201Z,18.10
2017-09-21T05:07:17.275Z,18.10
2017-09-21T05:09:45.352Z,18.37
2017-09-21T05:12:13.443Z,18.27
2017-09-21T05:14:42.279Z,18.40
2017-09-21T05:17:10.347Z,18.17
2017-09-21T05:19:38.424Z,18.07
2017-09-21T05:22:06.510Z,19.20
2017-09-21T05:24:34.575Z,18.30
2017-09-21T05:27:02.659Z,18.17
2017-09-21T05:29:30.730Z,21.40
2017-09-21T05:31:58.807Z,21.33
2017-09-21T05:34:26.867Z,19.80
2017-09-21T05:36:54.941Z,19.93
2017-09-21T05:39:23.011Z,20.12
2017-09-21T05:41:51.097Z,18.67
2017-09-21T05:44:19.167Z,18.03
2017-09-21T05:46:48.012Z,19.53
2017-09-21T05:49:16.137Z,18.10
2017-09-21T05:51:44.199Z,19.47
2017-09-21T05:54:12.291Z,20.20
2017-09-21T05:56:41.148Z,23.13
2017-09-21T05:59:09.219Z,18.77
2017-09-21T06:01:37.299Z,21.50
2017-09-21T06:04:05.360Z,19.50
2017-09-21T06:06:33.458Z,19.20
2017-09-21T06:09:02.306Z,17.77
2017-09-21T06:11:31.228Z,17.03
2017-09-21T06:14:00.802Z,17.60
2017-09-21T06:16:28.870Z,16.73
2017-09-21T06:18:56.972Z,18.27
2017-09-21T06:21:25.056Z,16.80
2017-09-21T06:23:53.947Z,17.50
2017-09-21T06:26:22.007Z,17.07
2017-09-21T06:28:50.087Z,14.53
2017-09-21T06:31:19.010Z,14.40
2017-09-21T06:33:47.094Z,17.23
2017-09-21T06:36:15.167Z,15.70
2017-09-21T06:38:43.254Z,16.93
2017-09-21T06:41:11.315Z,16.17
2017-09-21T06:43:39.410Z,16.83
2017-09-21T06:46:07.468Z,15.27
2017-09-21T06:48:35.555Z,19.10
2017-09-21T06:51:03.618Z,16.67
2017-09-21T06:53:31.705Z,24.67
2017-09-21T06:55:59.780Z,17.03
2017-09-21T06:58:27.851Z,18.63
2017-09-21T07:00:55.947Z,17.40
2017-09-21T07:03:24.029Z,16.53
2017-09-21T07:05:52.086Z,19.17
2017-09-21T07:08:20.156Z,16.27
2017-09-21T07:10:48.230Z,18.27
2017-09-21T07:13:16.307Z,17.30
2017-09-21T07:15:45.262Z,18.80
2017-09-21T07:18:13.350Z,17.87
2017-09-21T07:20:41.431Z,16.97
2017-09-21T07:23:09.532Z,17.47
2017-09-21T07:25:38.373Z,21.00
2017-09-21T07:28:06.447Z,17.30
2017-09-21T07:30:34.537Z,16.03
2017-09-21T07:33:02.607Z,16.00
2017-09-21T07:35:30.681Z,16.10
2017-09-21T07:37:59.521Z,17.20
2017-09-21T07:40:27.591Z,16.13
2017-09-21T07:42:55.674Z,22.07
2017-09-21T07:45:25.239Z,18.00
2017-09-21T07:47:53.317Z,14.10
2017-09-21T07:50:21.392Z,15.27
2017-09-21T07:52:49.498Z,13.23
2017-09-21T07:55:17.552Z,16.43
2017-09-21T07:57:45.649Z,13.60
2017-09-21T08:00:14.488Z,14.37
2017-09-21T08:02:42.560Z,16.20
2017-09-21T08:05:10.668Z,16.00
2017-09-21T08:07:38.732Z,12.90
2017-09-21T08:10:06.807Z,23.47
2017-09-21T08:12:34.874Z,15.63
2017-09-21T08:15:02.959Z,19.20
2017-09-21T08:17:31.007Z,14.50
2017-09-21T08:19:59.066Z,16.47
2017-09-21T08:22:27.155Z,17.27
2017-09-21T08:24:55.223Z,15.53
2017-09-21T08:27:23.291Z,13.57
2017-09-21T08:29:51.359Z,11.93
2017-09-21T08:32:19.439Z,11.47
2017-09-21T08:34:47.507Z,12.67
2017-09-21T08:37:15.575Z,15.20
2017-09-21T08:39:43.646Z,10.80
2017-09-21T08:42:11.742Z,13.10
2017-09-21T08:44:39.813Z,10.57
2017-09-21T08:47:07.907Z,12.20
2017-09-21T08:49:35.996Z,10.90
2017-09-21T08:52:04.836Z,10.13
2017-09-21T08:54:32.926Z,8.93
2017-09-21T08:57:01.050Z,8.63
2017-09-21T08:59:29.128Z,6.90
2017-09-21T09:01:57.207Z,6.43
2017-09-21T09:04:25.299Z,7.60
2017-09-21T09:06:53.848Z,6.13
2017-09-21T09:09:21.922Z,5.30
2017-09-21T09:11:49.991Z,6.60
2017-09-21T09:14:18.065Z,8.13
2017-09-21T09:16:46.143Z,5.23
2017-09-21T09:19:14.223Z,4.93
2017-09-21T09:21:42.274Z,4.20
2017-09-21T09:24:11.544Z,4.83
2017-09-21T09:26:39.615Z,4.80
2017-09-21T09:29:07.729Z,5.50
2017-09-21T09:31:35.759Z,5.47
2017-09-21T09:34:03.823Z,4.27
2017-09-21T09:36:31.894Z,8.13
2017-09-21T09:38:59.952Z,4.30
2017-09-21T09:41:28.022Z,3.60
2017-09-21T09:43:56.089Z,3.23
2017-09-21T09:46:24.318Z,4.13
2017-09-21T09:48:52.386Z,6.10
2017-09-21T09:51:20.455Z,4.33
2017-09-21T09:53:49.293Z,4.23
2017-09-21T09:56:17.335Z,3.80
2017-09-21T09:58:45.451Z,3.40
2017-09-21T10:01:13.510Z,5.20
2017-09-21T10:03:41.624Z,3.23
2017-09-21T10:06:09.651Z,3.97
2017-09-21T10:08:39.234Z,5.27
2017-09-21T10:11:07.297Z,2.97
2017-09-21T10:16:36.958Z,4.50
2017-09-21T10:19:05.027Z,3.90
2017-09-21T10:21:33.146Z,4.60
2017-09-21T10:24:01.215Z,4.10
2017-09-21T10:26:29.298Z,4.60
2017-09-21T10:28:57.373Z,4.23
2017-09-21T10:31:25.432Z,9.10
2017-09-21T10:33:54.247Z,4.00
2017-09-21T10:36:22.347Z,4.07
2017-09-21T10:38:50.416Z,4.00
2017-09-21T10:41:19.246Z,5.60
2017-09-21T10:43:48.083Z,3.30
2017-09-21T10:46:16.901Z,4.30
2017-09-21T10:48:45.004Z,5.13
2017-09-21T10:51:13.855Z,3.00
2017-09-21T10:53:41.919Z,2.90
2017-09-21T10:56:10.023Z,2.90
2017-09-21T10:58:38.059Z,3.27
2017-09-21T11:01:06.135Z,3.57
2017-09-21T11:03:34.243Z,3.20
2017-09-21T11:06:02.302Z,2.80
2017-09-21T11:08:30.367Z,3.17
2017-09-21T11:10:58.450Z,3.33
2017-09-21T11:13:26.524Z,3.40
2017-09-21T11:15:54.646Z,3.43
2017-09-21T11:18:22.727Z,2.80
2017-09-21T11:20:50.800Z,4.03
2017-09-21T11:23:18.866Z,5.03
2017-09-21T11:25:46.931Z,3.00
2017-09-21T11:28:14.995Z,2.83
2017-09-21T11:30:43.063Z,5.47
2017-09-21T11:33:11.130Z,2.63
2017-09-21T11:35:39.988Z,2.23
2017-09-21T11:38:08.050Z,2.60
2017-09-21T11:40:36.156Z,4.83
2017-09-21T11:43:04.198Z,3.63
2017-09-21T11:45:32.258Z,2.60
2017-09-21T11:48:00.327Z,2.67
2017-09-21T11:50:28.397Z,2.63
2017-09-21T11:52:56.673Z,3.20
2017-09-21T11:55:24.727Z,2.50
2017-09-21T11:57:52.868Z,3.20
2017-09-21T12:00:20.918Z,4.33
2017-09-21T12:02:48.986Z,3.37
2017-09-21T12:05:17.087Z,3.17
2017-09-21T12:07:45.903Z,3.47
2017-09-21T12:10:13.987Z,3.07
2017-09-21T12:12:42.066Z,3.13
2017-09-21T12:15:10.140Z,3.07
2017-09-21T12:17:38.211Z,3.30
2017-09-21T12:20:06.271Z,3.33
2017-09-21T12:22:34.328Z,2.50
2017-09-21T12:25:02.416Z,7.33
2017-09-21T12:27:30.483Z,2.80
2017-09-21T12:29:58.552Z,3.43
2017-09-21T12:32:26.629Z,3.10
2017-09-21T12:34:54.788Z,3.40
2017-09-21T12:37:22.825Z,3.10
2017-09-21T12:39:51.650Z,2.90
2017-09-21T12:42:19.751Z,3.20
2017-09-21T12:44:47.844Z,2.30
2017-09-21T12:47:16.672Z,2.20
2017-09-21T12:49:44.740Z,2.60
2017-09-21T12:52:12.793Z,2.90
2017-09-21T12:54:40.863Z,3.00
2017-09-21T12:57:08.936Z,3.90
2017-09-21T12:59:36.991Z,3.10
2017-09-21T13:02:05.092Z,3.10
2017-09-21T13:04:33.135Z,2.80
2017-09-21T13:07:01.183Z,3.17
2017-09-21T13:09:30.024Z,3.03
2017-09-21T13:11:58.115Z,2.97
2017-09-21T13:14:26.187Z,3.43
2017-09-21T13:16:54.231Z,2.57
2017-09-21T13:19:22.358Z,3.50
2017-09-21T13:21:51.207Z,4.00
2017-09-21T13:24:19.276Z,2.80
2017-09-21T13:26:47.331Z,4.30
2017-09-21T13:29:15.831Z,2.47
2017-09-21T13:31:43.900Z,2.83
2017-09-21T13:34:11.960Z,2.70
2017-09-21T13:36:40.013Z,2.63
2017-09-21T13:39:08.533Z,3.10
2017-09-21T13:41:36.621Z,4.80
2017-09-21T13:44:04.732Z,3.10
2017-09-21T13:46:32.790Z,3.03
2017-09-21T13:49:01.798Z,2.80
2017-09-21T13:51:29.872Z,3.20
2017-09-21T13:53:57.951Z,2.77
2017-09-21T13:56:26.001Z,2.90
2017-09-21T13:58:54.075Z,4.13
2017-09-21T14:01:22.170Z,2.93
2017-09-21T14:03:50.232Z,3.30
2017-09-21T14:06:18.295Z,3.00
2017-09-21T14:08:46.387Z,2.40
2017-09-21T14:11:14.438Z,2.30
2017-09-21T14:13:42.499Z,2.37
2017-09-21T14:16:10.583Z,2.40
2017-09-21T14:18:38.642Z,2.40
2017-09-21T14:21:06.772Z,3.33
2017-09-21T14:23:34.860Z,2.53
2017-09-21T14:26:02.910Z,2.80
2017-09-21T14:28:30.983Z,2.80
2017-09-21T14:30:59.040Z,2.50
2017-09-21T14:33:27.127Z,2.50
2017-09-21T14:35:55.181Z,3.20
2017-09-21T14:38:23.263Z,2.70
2017-09-21T14:40:51.341Z,4.10
2017-09-21T14:43:19.413Z,2.90
2017-09-21T14:45:47.476Z,2.33
2017-09-21T14:48:16.526Z,2.53
2017-09-21T14:50:44.560Z,2.67
2017-09-21T14:53:12.623Z,2.90
2017-09-21T14:55:40.708Z,6.10
2017-09-21T14:58:08.782Z,2.13
2017-09-21T15:00:36.847Z,4.27
2017-09-21T15:03:04.913Z,2.10
2017-09-21T15:05:32.994Z,2.77
2017-09-21T15:08:01.107Z,2.43
2017-09-21T15:10:30.063Z,3.00
2017-09-21T15:12:58.110Z,3.20
2017-09-21T15:15:26.203Z,2.40
2017-09-21T15:17:54.255Z,2.83
2017-09-21T15:20:22.342Z,2.63
2017-09-21T15:22:50.427Z,4.00
2017-09-21T15:25:18.507Z,2.60
2017-09-21T15:27:46.552Z,4.33
2017-09-21T15:30:14.638Z,2.23
2017-09-21T15:32:42.684Z,2.53
2017-09-21T15:35:10.738Z,2.87
2017-09-21T15:37:38.836Z,2.53
2017-09-21T15:40:07.536Z,2.10
2017-09-21T15:42:35.602Z,3.30
2017-09-21T15:45:03.663Z,3.40
2017-09-21T15:47:31.732Z,2.90
2017-09-21T15:49:59.795Z,3.00
2017-09-21T15:52:27.886Z,2.63
2017-09-21T15:54:55.960Z,2.70
2017-09-21T15:57:24.041Z,2.63
2017-09-21T15:59:52.099Z,2.60
2017-09-21T16:02:20.169Z,2.97
2017-09-21T16:04:48.249Z,7.87
2017-09-21T16:07:16.303Z,2.77
2017-09-21T16:09:44.406Z,2.90
2017-09-21T16:12:12.469Z,2.80
2017-09-21T16:14:40.533Z,3.03
2017-09-21T16:17:08.601Z,3.77
2017-09-21T16:19:36.715Z,3.70
2017-09-21T16:22:04.772Z,4.40
2017-09-21T16:24:32.840Z,5.00
2017-09-21T16:27:00.922Z,4.00
2017-09-21T16:29:29.041Z,4.30
2017-09-21T16:31:58.372Z,3.60
2017-09-21T16:34:26.475Z,3.70
2017-09-21T16:36:54.568Z,3.30
2017-09-21T16:39:22.649Z,3.73
2017-09-21T16:41:50.768Z,3.57
2017-09-21T16:44:18.895Z,2.70
2017-09-21T16:46:48.664Z,6.83
2017-09-21T16:49:16.818Z,3.50
2017-09-21T16:51:45.148Z,2.80
2017-09-21T16:54:13.221Z,2.67
2017-09-21T16:56:41.397Z,4.00
2017-09-21T16:59:09.485Z,3.30
2017-09-21T17:01:37.572Z,5.67
2017-09-21T17:04:05.665Z,6.53
2017-09-21T17:06:34.585Z,7.87
2017-09-21T17:09:03.451Z,8.43
2017-09-21T17:11:31.534Z,9.67
2017-09-21T17:13:59.583Z,6.63
2017-09-21T17:16:28.463Z,10.27
2017-09-21T17:18:56.745Z,7.13
2017-09-21T17:21:24.813Z,7.70
2017-09-21T17:23:52.887Z,6.70
2017-09-21T17:26:20.952Z,7.33
2017-09-21T17:28:49.026Z,9.93
2017-09-21T17:31:17.452Z,9.00
2017-09-21T17:33:45.524Z,9.17
2017-09-21T17:36:13.563Z,10.63
2017-09-21T17:38:42.435Z,11.60
2017-09-21T17:41:10.499Z,14.57
2017-09-21T17:43:38.587Z,13.13
2017-09-21T17:46:06.667Z,12.87
2017-09-21T17:48:35.491Z,10.43
2017-09-21T17:51:03.584Z,11.20
2017-09-21T17:53:32.414Z,13.00
2017-09-21T17:56:00.496Z,13.27
2017-09-21T17:58:28.586Z,13.50
2017-09-21T18:00:56.675Z,12.40
2017-09-21T18:03:25.535Z,12.00
2017-09-21T18:05:53.621Z,13.13
2017-09-21T18:08:21.695Z,15.43
2017-09-21T18:10:49.764Z,16.50
2017-09-21T18:13:17.924Z,17.30
2017-09-21T18:15:45.996Z,12.97
2017-09-21T18:18:14.072Z,14.43
2017-09-21T18:20:42.145Z,14.80
2017-09-21T18:23:10.216Z,14.33
2017-09-21T18:25:38.296Z,15.40
2017-09-21T18:28:07.167Z,15.80
2017-09-21T18:30:35.245Z,17.20
2017-09-21T18:33:03.315Z,16.97
2017-09-21T18:35:32.219Z,14.67
2017-09-21T18:38:00.304Z,13.93
2017-09-21T18:40:29.140Z,15.53
2017-09-21T18:42:57.214Z,15.33
2017-09-21T18:45:25.431Z,19.37
2017-09-21T18:47:55.011Z,18.73
2017-09-21T18:50:23.089Z,17.23
2017-09-21T18:52:51.215Z,18.37
2017-09-21T18:55:19.296Z,15.10
2017-09-21T18:57:47.397Z,14.40
2017-09-21T19:00:18.841Z,14.93
2017-09-21T19:02:47.795Z,13.53
2017-09-21T19:05:15.874Z,15.37
2017-09-21T19:07:43.981Z,13.87
2017-09-21T19:10:12.885Z,15.20
2017-09-21T19:12:41.719Z,14.47
2017-09-21T19:15:09.804Z,14.53
2017-09-21T19:17:39.398Z,14.47
2017-09-21T19:20:07.510Z,14.53
2017-09-21T19:22:36.339Z,12.77
2017-09-21T19:25:04.453Z,12.80
2017-09-21T19:27:32.609Z,12.60
2017-09-21T19:30:00.689Z,13.80
2017-09-21T19:32:28.757Z,13.27
2017-09-21T19:34:56.822Z,13.27
2017-09-21T19:37:24.905Z,13.80
2017-09-21T19:39:53.026Z,14.73
2017-09-21T19:42:21.126Z,15.03
2017-09-21T19:44:49.204Z,14.73
2017-09-21T19:47:17.317Z,15.23
2017-09-21T19:49:46.603Z,16.73
2017-09-21T19:52:15.432Z,16.13
2017-09-21T19:54:43.537Z,14.40
2017-09-21T19:57:11.705Z,15.90
2017-09-21T19:59:39.829Z,14.97
2017-09-21T20:02:07.907Z,14.50
2017-09-21T20:04:36.018Z,14.83
2017-09-21T20:07:04.117Z,14.20
2017-09-21T20:09:33.044Z,13.83
2017-09-21T20:12:01.141Z,13.40
2017-09-21T20:14:29.232Z,14.30
2017-09-21T20:16:57.288Z,15.80
2017-09-21T20:19:25.432Z,14.57
2017-09-21T20:21:53.692Z,14.23
2017-09-21T20:24:23.304Z,14.47
2017-09-21T20:26:51.558Z,12.43
2017-09-21T20:29:19.654Z,15.43
2017-09-21T20:31:47.754Z,12.87
2017-09-21T20:34:16.669Z,13.00
2017-09-21T20:36:44.736Z,13.87
2017-09-21T20:39:12.800Z,12.63
2017-09-21T20:41:40.863Z,12.67
2017-09-21T20:44:08.935Z,13.33
2017-09-21T20:46:38.542Z,13.67
2017-09-21T20:49:06.766Z,11.07
2017-09-21T20:51:35.583Z,11.60
2017-09-21T20:54:03.670Z,11.77
2017-09-21T20:56:31.732Z,13.30
2017-09-21T20:58:59.794Z,10.77
2017-09-21T21:04:02.983Z,10.30
2017-09-21T21:06:31.154Z,12.23
2017-09-21T21:08:59.213Z,10.23
2017-09-21T21:11:27.285Z,10.10
2017-09-21T21:13:56.185Z,11.50
2017-09-21T21:16:24.268Z,12.87
2017-09-21T21:18:52.339Z,11.20
2017-09-21T21:21:20.407Z,11.03
2017-09-21T21:23:48.499Z,9.90
2017-09-21T21:26:16.566Z,10.90
2017-09-21T21:28:44.654Z,11.70
2017-09-21T21:31:12.862Z,10.80
2017-09-21T21:33:40.945Z,10.47
2017-09-21T21:36:09.024Z,11.30
2017-09-21T21:38:37.089Z,9.40
2017-09-21T21:41:05.919Z,10.50
2017-09-21T21:43:34.005Z,10.80
2017-09-21T21:46:02.116Z,11.67
2017-09-21T21:48:30.181Z,15.30
2017-09-21T21:50:58.250Z,11.33
2017-09-21T21:53:26.335Z,11.20
2017-09-21T21:55:54.406Z,11.17
2017-09-21T21:58:22.479Z,11.93
2017-09-21T22:00:50.616Z,10.90
2017-09-21T22:03:18.688Z,11.50
2017-09-21T22:05:46.758Z,11.73
2017-09-21T22:08:15.708Z,10.63
2017-09-21T22:10:43.796Z,10.20
2017-09-21T22:13:11.852Z,9.50
2017-09-21T22:15:39.939Z,9.30
2017-09-21T22:18:08.010Z,9.70
2017-09-21T22:20:36.079Z,8.80
2017-09-21T22:23:04.175Z,9.37
2017-09-21T22:25:32.233Z,10.13
2017-09-21T22:28:00.294Z,9.67
2017-09-21T22:30:28.372Z,11.63
2017-09-21T22:32:56.415Z,10.80
2017-09-21T22:35:24.522Z,11.43
2017-09-21T22:37:52.594Z,9.80
2017-09-21T22:40:20.652Z,10.20
2017-09-21T22:42:48.727Z,10.93
2017-09-21T22:45:16.814Z,10.63
2017-09-21T22:47:46.409Z,10.43
2017-09-21T22:50:14.477Z,11.10
2017-09-21T22:52:42.546Z,12.60
2017-09-21T22:55:11.419Z,10.63
2017-09-21T22:57:39.482Z,12.30
2017-09-21T23:00:07.555Z,11.10
2017-09-21T23:02:35.620Z,12.73
2017-09-21T23:05:03.696Z,12.90
2017-09-21T23:07:31.776Z,11.87
2017-09-21T23:10:00.622Z,12.57
2017-09-21T23:12:28.713Z,13.40
2017-09-21T23:14:56.787Z,13.43
2017-09-21T23:17:24.867Z,15.63
2017-09-21T23:19:52.933Z,11.57
2017-09-21T23:22:21.780Z,13.87
2017-09-21T23:24:49.843Z,12.10
2017-09-21T23:27:17.919Z,19.37
2017-09-21T23:29:46.003Z,13.80
2017-09-21T23:32:14.078Z,14.23
2017-09-21T23:34:42.170Z,15.43
2017-09-21T23:37:10.262Z,15.63
2017-09-21T23:39:38.322Z,13.83
2017-09-21T23:42:06.395Z,14.40
2017-09-21T23:44:34.471Z,14.10
2017-09-21T23:47:02.547Z,12.83
2017-09-21T23:49:30.633Z,16.80
2017-09-21T23:51:59.464Z,14.07
2017-09-21T23:54:27.543Z,15.43
2017-09-21T23:56:55.619Z,16.67
2017-09-21T23:59:24.455Z,15.27
